createdAt,value
2019-03-19T00:01:45.424Z,9.03
2019-03-19T00:03:46.315Z,9.07
2019-03-19T00:05:47.144Z,9.13
2019-03-19T00:07:47.983Z,8.70
2019-03-19T00:09:48.839Z,8.93
2019-03-19T00:11:49.673Z,8.97
2019-03-19T00:13:50.512Z,8.30
2019-03-19T00:15:51.379Z,8.70
2019-03-19T00:17:52.229Z,8.57
2019-03-19T00:19:53.064Z,9.13
2019-03-19T00:21:53.913Z,8.77
2019-03-19T00:23:55.022Z,7.93
2019-03-19T00:25:55.861Z,8.27
2019-03-19T00:27:56.712Z,8.87
2019-03-19T00:29:57.801Z,8.30
2019-03-19T00:31:58.633Z,8.70
2019-03-19T00:33:59.477Z,9.03
2019-03-19T00:36:00.629Z,8.90
2019-03-19T00:38:01.780Z,9.43
2019-03-19T00:40:02.633Z,9.63
2019-03-19T00:42:03.461Z,9.13
2019-03-19T00:44:04.289Z,10.80
2019-03-19T00:46:05.140Z,10.83
2019-03-19T00:48:05.982Z,10.33
2019-03-19T00:50:06.798Z,9.53
2019-03-19T00:52:07.635Z,9.93
2019-03-19T00:54:08.762Z,9.33
2019-03-19T00:56:09.596Z,9.83
2019-03-19T00:58:10.420Z,10.17
2019-03-19T01:00:11.660Z,9.63
2019-03-19T01:02:12.488Z,10.20
2019-03-19T01:04:13.342Z,9.43
2019-03-19T01:06:14.237Z,8.90
2019-03-19T01:08:15.088Z,9.47
2019-03-19T01:10:17.485Z,9.73
2019-03-19T01:12:18.652Z,10.23
2019-03-19T01:14:19.787Z,10.23
2019-03-19T01:16:20.640Z,10.13
2019-03-19T01:18:21.477Z,12.30
2019-03-19T01:20:22.312Z,12.70
2019-03-19T01:22:23.148Z,13.63
2019-03-19T01:24:23.997Z,14.47
2019-03-19T01:26:25.186Z,15.40
2019-03-19T01:28:26.016Z,12.07
2019-03-19T01:30:26.860Z,15.10
2019-03-19T01:32:28.054Z,16.10
2019-03-19T01:34:29.227Z,15.53
2019-03-19T01:36:30.052Z,15.10
2019-03-19T01:38:30.896Z,14.43
2019-03-19T01:40:31.743Z,14.17
2019-03-19T01:42:32.580Z,14.73
2019-03-19T01:44:33.476Z,15.67
2019-03-19T01:46:34.379Z,16.77
2019-03-19T01:48:35.208Z,16.50
2019-03-19T01:50:36.057Z,15.43
2019-03-19T01:52:36.888Z,16.17
2019-03-19T01:54:37.737Z,14.90
2019-03-19T01:56:38.872Z,15.20
2019-03-19T01:58:39.696Z,15.10
2019-03-19T02:00:40.546Z,14.30
2019-03-19T02:02:41.372Z,14.90
2019-03-19T02:04:42.224Z,13.70
2019-03-19T02:06:43.061Z,12.77
2019-03-19T02:08:43.896Z,12.63
2019-03-19T02:10:44.743Z,12.53
2019-03-19T02:12:45.593Z,12.37
2019-03-19T02:14:46.792Z,11.97
2019-03-19T02:16:47.644Z,13.80
2019-03-19T02:18:48.773Z,13.30
2019-03-19T02:20:49.596Z,12.73
2019-03-19T02:22:50.429Z,11.90
2019-03-19T02:24:51.273Z,12.40
2019-03-19T02:26:52.108Z,13.17
2019-03-19T02:28:52.976Z,12.67
2019-03-19T02:30:53.810Z,12.57
2019-03-19T02:32:54.999Z,12.20
2019-03-19T02:34:55.851Z,11.43
2019-03-19T02:36:56.686Z,11.80
2019-03-19T02:38:57.510Z,11.03
2019-03-19T02:40:58.360Z,12.47
2019-03-19T02:42:59.424Z,12.07
2019-03-19T02:45:00.516Z,13.00
2019-03-19T02:47:01.414Z,13.73
2019-03-19T02:49:02.242Z,11.93
2019-03-19T02:51:03.099Z,12.73
2019-03-19T02:53:03.926Z,12.63
2019-03-19T02:55:04.754Z,13.00
2019-03-19T02:57:05.609Z,12.90
2019-03-19T02:59:06.745Z,13.50
2019-03-19T03:01:07.595Z,14.57
2019-03-19T03:03:08.432Z,14.43
2019-03-19T03:05:09.264Z,13.10
2019-03-19T03:07:10.141Z,14.93
2019-03-19T03:09:11.325Z,14.30
2019-03-19T03:11:12.155Z,14.13
2019-03-19T03:13:13.015Z,13.57
2019-03-19T03:15:13.857Z,13.97
2019-03-19T03:17:14.710Z,14.23
2019-03-19T03:19:15.569Z,13.23
2019-03-19T03:21:16.511Z,15.00
2019-03-19T03:23:17.385Z,14.50
2019-03-19T03:25:18.215Z,13.23
2019-03-19T03:27:19.049Z,14.33
2019-03-19T03:29:19.911Z,15.00
2019-03-19T03:31:20.740Z,14.27
2019-03-19T03:33:21.570Z,13.97
2019-03-19T03:35:22.690Z,15.27
2019-03-19T03:37:23.522Z,14.50
2019-03-19T03:39:24.362Z,14.67
2019-03-19T03:41:25.214Z,14.67
2019-03-19T03:43:26.053Z,15.20
2019-03-19T03:45:26.904Z,14.77
2019-03-19T03:47:27.753Z,14.80
2019-03-19T03:49:28.724Z,14.77
2019-03-19T03:51:29.586Z,13.80
2019-03-19T03:53:30.418Z,14.07
2019-03-19T03:55:31.525Z,14.77
2019-03-19T03:57:32.526Z,14.43
2019-03-19T03:59:33.381Z,14.67
2019-03-19T04:01:34.222Z,14.10
2019-03-19T04:03:35.071Z,14.73
2019-03-19T04:05:35.918Z,14.40
2019-03-19T04:07:36.774Z,15.17
2019-03-19T04:09:37.599Z,14.97
2019-03-19T04:11:38.428Z,15.33
2019-03-19T04:13:39.299Z,15.57
2019-03-19T04:15:40.125Z,14.63
2019-03-19T04:17:40.966Z,15.00
2019-03-19T04:19:42.117Z,14.33
2019-03-19T04:21:42.976Z,14.83
2019-03-19T04:23:43.831Z,14.93
2019-03-19T04:25:44.653Z,14.27
2019-03-19T04:27:45.503Z,14.07
2019-03-19T04:29:46.344Z,14.47
2019-03-19T04:31:47.170Z,15.07
2019-03-19T04:33:48.006Z,15.47
2019-03-19T04:35:48.878Z,14.93
2019-03-19T04:37:49.745Z,13.53
2019-03-19T04:39:50.639Z,13.70
2019-03-19T04:41:51.522Z,15.00
2019-03-19T04:43:52.371Z,14.20
2019-03-19T04:45:53.205Z,14.00
2019-03-19T04:47:54.069Z,13.53
2019-03-19T04:49:54.916Z,14.50
2019-03-19T04:51:55.774Z,13.80
2019-03-19T04:53:56.597Z,13.07
2019-03-19T04:55:57.453Z,13.77
2019-03-19T04:57:58.283Z,13.60
2019-03-19T04:59:59.189Z,14.27
2019-03-19T05:02:00.061Z,13.83
2019-03-19T05:04:00.896Z,13.97
2019-03-19T05:06:01.755Z,14.50
2019-03-19T05:08:02.601Z,14.70
2019-03-19T05:10:03.462Z,14.37
2019-03-19T05:12:04.318Z,14.00
2019-03-19T05:14:05.148Z,14.67
2019-03-19T05:16:06.000Z,14.30
2019-03-19T05:18:06.857Z,15.33
2019-03-19T05:20:07.697Z,15.30
2019-03-19T05:22:08.561Z,15.37
2019-03-19T05:24:09.397Z,15.17
2019-03-19T05:26:10.254Z,15.77
2019-03-19T05:28:11.084Z,13.70
2019-03-19T05:30:11.916Z,14.30
2019-03-19T05:32:13.058Z,14.07
2019-03-19T05:34:13.886Z,14.83
2019-03-19T05:36:14.737Z,16.00
2019-03-19T05:38:15.558Z,16.23
2019-03-19T05:40:16.417Z,15.57
2019-03-19T05:42:17.261Z,16.10
2019-03-19T05:44:19.048Z,16.37
2019-03-19T05:46:19.906Z,17.17
2019-03-19T05:48:20.735Z,15.90
2019-03-19T05:50:21.587Z,16.37
2019-03-19T05:52:22.413Z,15.70
2019-03-19T05:54:23.270Z,16.80
2019-03-19T05:56:24.128Z,15.63
2019-03-19T05:58:25.007Z,15.83
2019-03-19T06:00:26.921Z,16.97
2019-03-19T06:02:27.765Z,17.07
2019-03-19T06:04:28.612Z,16.97
2019-03-19T06:06:29.444Z,17.50
2019-03-19T06:08:30.278Z,17.27
2019-03-19T06:10:31.133Z,18.27
2019-03-19T06:12:31.962Z,16.80
2019-03-19T06:14:32.784Z,16.13
2019-03-19T06:16:33.616Z,15.87
2019-03-19T06:18:35.529Z,17.87
2019-03-19T06:20:36.623Z,16.33
2019-03-19T06:22:37.458Z,17.47
2019-03-19T06:24:38.594Z,16.47
2019-03-19T06:26:39.541Z,18.13
2019-03-19T06:28:40.387Z,17.33
2019-03-19T06:30:41.218Z,18.30
2019-03-19T06:32:42.157Z,16.07
2019-03-19T06:34:43.017Z,17.17
2019-03-19T06:36:43.839Z,18.00
2019-03-19T06:38:44.705Z,17.07
2019-03-19T06:40:45.884Z,17.07
2019-03-19T06:42:46.752Z,18.03
2019-03-19T06:44:47.996Z,6.87
2019-03-19T06:46:49.238Z,48.17
2019-03-19T06:48:50.061Z,36.93
2019-03-19T06:50:51.002Z,27.50
2019-03-19T06:52:52.089Z,17.23
2019-03-19T06:54:52.940Z,17.17
2019-03-19T06:56:53.777Z,17.47
2019-03-19T06:58:54.616Z,16.07
2019-03-19T07:00:55.461Z,17.70
2019-03-19T07:02:56.290Z,16.30
2019-03-19T07:04:57.112Z,16.43
2019-03-19T07:06:57.960Z,16.57
2019-03-19T07:08:58.800Z,17.50
2019-03-19T07:10:59.656Z,17.57
2019-03-19T07:13:00.535Z,17.90
2019-03-19T07:15:01.377Z,16.80
2019-03-19T07:17:02.221Z,16.83
2019-03-19T07:19:03.334Z,17.27
2019-03-19T07:21:04.189Z,17.77
2019-03-19T07:23:05.016Z,19.67
2019-03-19T07:25:05.850Z,19.17
2019-03-19T07:27:06.719Z,19.07
2019-03-19T07:29:07.585Z,19.53
2019-03-19T07:31:08.441Z,17.83
2019-03-19T07:33:09.262Z,16.67
2019-03-19T07:35:10.116Z,17.40
2019-03-19T07:37:10.960Z,15.97
2019-03-19T07:39:11.805Z,17.47
2019-03-19T07:41:13.278Z,17.00
2019-03-19T07:43:14.094Z,17.27
2019-03-19T07:45:15.037Z,17.50
2019-03-19T07:47:15.881Z,16.97
2019-03-19T07:49:17.062Z,17.50
2019-03-19T07:51:17.908Z,16.47
2019-03-19T07:53:18.868Z,16.83
2019-03-19T07:55:19.781Z,16.83
2019-03-19T07:57:20.632Z,16.97
2019-03-19T07:59:21.488Z,16.83
2019-03-19T08:01:24.601Z,16.00
2019-03-19T08:03:25.076Z,15.10
2019-03-19T08:05:33.035Z,15.27
2019-03-19T08:07:28.673Z,15.20
2019-03-19T08:09:29.585Z,14.27
2019-03-19T08:11:30.572Z,14.30
2019-03-19T08:13:31.413Z,14.10
2019-03-19T08:15:32.252Z,14.13
2019-03-19T08:17:33.074Z,13.53
2019-03-19T08:19:34.269Z,13.87
2019-03-19T08:21:35.111Z,12.30
2019-03-19T08:23:35.948Z,12.73
2019-03-19T08:25:36.788Z,13.20
2019-03-19T08:27:37.629Z,13.23
2019-03-19T08:29:38.495Z,13.03
2019-03-19T08:31:39.424Z,13.13
2019-03-19T08:33:40.276Z,12.43
2019-03-19T08:35:41.112Z,13.20
2019-03-19T08:37:41.933Z,12.47
2019-03-19T08:39:43.112Z,12.60
2019-03-19T08:41:43.956Z,11.93
2019-03-19T08:43:44.779Z,12.47
2019-03-19T08:45:45.634Z,12.17
2019-03-19T08:47:46.750Z,11.90
2019-03-19T08:49:47.601Z,12.10
2019-03-19T08:51:48.428Z,10.63
2019-03-19T08:53:49.276Z,10.53
2019-03-19T08:55:50.135Z,10.23
2019-03-19T08:57:50.982Z,10.83
2019-03-19T08:59:51.808Z,10.40
2019-03-19T09:01:52.664Z,10.07
2019-03-19T09:03:53.513Z,10.23
2019-03-19T09:05:54.351Z,9.93
2019-03-19T09:07:55.204Z,9.47
2019-03-19T09:09:56.040Z,9.80
2019-03-19T09:11:56.894Z,7.90
2019-03-19T09:13:58.079Z,9.00
2019-03-19T09:15:58.929Z,9.80
2019-03-19T09:18:00.009Z,9.53
2019-03-19T09:20:00.868Z,10.30
2019-03-19T09:22:01.702Z,9.30
2019-03-19T09:24:02.566Z,9.17
2019-03-19T09:26:03.397Z,8.03
2019-03-19T09:28:04.256Z,7.73
2019-03-19T09:30:05.097Z,7.97
2019-03-19T09:32:05.932Z,8.60
2019-03-19T09:34:06.780Z,7.87
2019-03-19T09:36:07.620Z,7.37
2019-03-19T09:38:08.844Z,7.00
2019-03-19T09:40:09.691Z,7.53
2019-03-19T09:42:10.846Z,7.57
2019-03-19T09:44:11.693Z,7.40
2019-03-19T09:46:12.542Z,7.03
2019-03-19T09:48:13.368Z,7.70
2019-03-19T09:50:14.222Z,7.00
2019-03-19T09:52:15.365Z,7.50
2019-03-19T09:54:16.201Z,7.80
2019-03-19T09:56:17.054Z,7.80
2019-03-19T09:58:17.869Z,7.97
2019-03-19T10:00:18.722Z,7.67
2019-03-19T10:02:19.552Z,7.30
2019-03-19T10:04:20.402Z,7.67
2019-03-19T10:06:21.240Z,8.27
2019-03-19T10:08:22.097Z,7.67
2019-03-19T10:10:23.026Z,7.53
2019-03-19T10:12:24.014Z,7.37
2019-03-19T10:14:24.877Z,7.50
2019-03-19T10:16:25.796Z,8.37
2019-03-19T10:18:26.651Z,7.90
2019-03-19T10:20:27.519Z,7.43
2019-03-19T10:22:28.342Z,8.07
2019-03-19T10:24:29.175Z,7.90
2019-03-19T10:26:30.039Z,7.63
2019-03-19T10:28:31.157Z,7.13
2019-03-19T10:30:32.109Z,7.40
2019-03-19T10:32:33.232Z,8.90
2019-03-19T10:34:34.091Z,7.33
2019-03-19T10:36:34.969Z,8.60
2019-03-19T10:38:35.804Z,7.97
2019-03-19T10:40:36.684Z,7.93
2019-03-19T10:42:37.525Z,7.87
2019-03-19T10:44:38.384Z,8.00
2019-03-19T10:46:39.240Z,8.40
2019-03-19T10:48:40.082Z,7.60
2019-03-19T10:50:40.929Z,8.20
2019-03-19T10:52:41.775Z,7.70
2019-03-19T10:54:42.628Z,6.83
2019-03-19T10:56:43.497Z,7.20
2019-03-19T10:58:44.335Z,6.90
2019-03-19T11:00:45.532Z,6.97
2019-03-19T11:02:46.383Z,7.57
2019-03-19T11:04:47.220Z,6.83
2019-03-19T11:06:48.061Z,7.57
2019-03-19T11:08:48.889Z,7.57
2019-03-19T11:10:50.007Z,7.70
2019-03-19T11:12:50.866Z,7.20
2019-03-19T11:14:51.717Z,7.53
2019-03-19T11:16:52.915Z,7.43
2019-03-19T11:18:53.777Z,7.13
2019-03-19T11:20:54.621Z,7.13
2019-03-19T11:22:55.468Z,7.47
2019-03-19T11:24:56.328Z,6.70
2019-03-19T11:26:57.217Z,7.20
2019-03-19T11:28:58.073Z,7.83
2019-03-19T11:30:58.927Z,6.97
2019-03-19T11:32:59.772Z,6.53
2019-03-19T11:35:00.640Z,5.17
2019-03-19T11:37:01.480Z,5.37
2019-03-19T11:39:02.322Z,5.43
2019-03-19T11:41:03.179Z,5.50
2019-03-19T11:43:04.344Z,5.50
2019-03-19T11:45:05.501Z,5.20
2019-03-19T11:47:06.656Z,5.00
2019-03-19T11:49:07.489Z,5.40
2019-03-19T11:51:08.338Z,6.90
2019-03-19T11:53:09.176Z,5.50
2019-03-19T11:55:10.036Z,5.97
2019-03-19T11:57:10.898Z,6.07
2019-03-19T11:59:11.769Z,5.73
2019-03-19T12:01:12.596Z,6.20
2019-03-19T12:03:16.450Z,5.10
2019-03-19T12:05:16.487Z,6.07
2019-03-19T12:07:17.617Z,5.73
2019-03-19T12:09:18.486Z,5.20
2019-03-19T12:11:19.329Z,5.20
2019-03-19T12:13:20.173Z,5.47
2019-03-19T12:15:21.004Z,5.53
2019-03-19T12:17:21.841Z,4.60
2019-03-19T12:19:23.514Z,4.10
2019-03-19T12:21:24.681Z,4.03
2019-03-19T12:23:25.530Z,4.40
2019-03-19T12:25:26.385Z,4.53
2019-03-19T12:27:27.221Z,4.43
2019-03-19T12:29:28.190Z,4.80
2019-03-19T12:31:29.019Z,4.10
2019-03-19T12:33:40.100Z,4.33
2019-03-19T12:35:32.623Z,4.73
2019-03-19T12:37:33.448Z,4.37
2019-03-19T12:39:34.280Z,4.70
2019-03-19T12:41:35.132Z,4.70
2019-03-19T12:43:35.969Z,5.57
2019-03-19T12:45:37.023Z,5.40
2019-03-19T12:47:38.164Z,3.00
2019-03-19T12:49:39.046Z,3.20
2019-03-19T12:51:39.961Z,3.50
2019-03-19T12:53:41.068Z,3.70
2019-03-19T12:55:41.901Z,3.50
2019-03-19T12:57:42.757Z,4.53
2019-03-19T12:59:43.581Z,4.40
2019-03-19T13:01:44.741Z,4.47
2019-03-19T13:03:45.582Z,4.60
2019-03-19T13:05:46.448Z,5.30
2019-03-19T13:07:47.344Z,5.03
2019-03-19T13:09:48.202Z,4.83
2019-03-19T13:11:49.305Z,4.70
2019-03-19T13:13:50.141Z,5.10
2019-03-19T13:15:51.260Z,4.97
2019-03-19T13:17:52.427Z,4.90
2019-03-19T13:19:53.572Z,4.50
2019-03-19T13:21:54.437Z,4.77
2019-03-19T13:23:55.285Z,4.57
2019-03-19T13:25:56.897Z,4.57
2019-03-19T13:27:57.975Z,4.13
2019-03-19T13:29:58.813Z,4.30
2019-03-19T13:31:59.648Z,4.70
2019-03-19T13:34:00.504Z,3.90
2019-03-19T13:36:01.339Z,4.37
2019-03-19T13:38:02.196Z,4.50
2019-03-19T13:40:03.044Z,4.60
2019-03-19T13:42:03.892Z,4.10
2019-03-19T13:44:04.736Z,4.57
2019-03-19T13:46:05.924Z,3.83
2019-03-19T13:48:07.049Z,4.33
2019-03-19T13:50:07.893Z,3.70
2019-03-19T13:52:08.736Z,3.80
2019-03-19T13:54:09.569Z,4.63
2019-03-19T13:56:10.438Z,5.23
2019-03-19T13:58:11.622Z,4.20
2019-03-19T14:00:12.564Z,4.40
2019-03-19T14:02:13.398Z,4.20
2019-03-19T14:04:14.229Z,3.60
2019-03-19T14:06:15.086Z,3.50
2019-03-19T14:08:17.906Z,3.60
2019-03-19T14:10:18.763Z,4.20
2019-03-19T14:12:19.618Z,3.90
2019-03-19T14:14:20.777Z,4.30
2019-03-19T14:16:21.889Z,4.17
2019-03-19T14:18:22.748Z,4.03
2019-03-19T14:20:23.584Z,4.10
2019-03-19T14:22:24.429Z,4.10
2019-03-19T14:24:25.276Z,4.00
2019-03-19T14:26:26.462Z,4.10
2019-03-19T14:28:27.300Z,4.00
2019-03-19T14:30:28.570Z,3.40
2019-03-19T14:32:29.433Z,3.67
2019-03-19T14:34:30.273Z,3.67
2019-03-19T14:36:31.128Z,3.73
2019-03-19T14:38:31.989Z,4.00
2019-03-19T14:40:33.120Z,4.03
2019-03-19T14:42:33.986Z,4.17
2019-03-19T14:44:34.859Z,3.70
2019-03-19T14:46:35.689Z,4.10
2019-03-19T14:48:36.521Z,4.37
2019-03-19T14:50:37.380Z,3.83
2019-03-19T14:52:38.236Z,3.67
2019-03-19T14:54:39.090Z,3.80
2019-03-19T14:56:39.921Z,3.67
2019-03-19T14:58:40.776Z,4.03
2019-03-19T15:00:41.976Z,3.80
2019-03-19T15:02:42.812Z,3.90
2019-03-19T15:04:43.645Z,4.03
2019-03-19T15:06:44.525Z,4.03
2019-03-19T15:08:45.382Z,3.40
2019-03-19T15:10:46.220Z,3.50
2019-03-19T15:12:47.102Z,3.70
2019-03-19T15:14:48.017Z,3.97
2019-03-19T15:16:49.150Z,4.17
2019-03-19T15:18:49.992Z,4.10
2019-03-19T15:20:52.973Z,3.70
2019-03-19T15:22:53.880Z,3.93
2019-03-19T15:24:54.704Z,3.90
2019-03-19T15:26:55.548Z,3.70
2019-03-19T15:28:56.402Z,3.87
2019-03-19T15:30:57.256Z,3.47
2019-03-19T15:32:58.093Z,3.93
2019-03-19T15:34:58.935Z,3.50
2019-03-19T15:36:59.796Z,3.70
2019-03-19T15:39:00.628Z,3.67
2019-03-19T15:41:01.507Z,4.13
2019-03-19T15:43:02.350Z,3.70
2019-03-19T15:45:03.204Z,3.50
2019-03-19T15:47:04.389Z,3.40
2019-03-19T15:49:05.561Z,3.40
2019-03-19T15:51:06.400Z,3.90
2019-03-19T15:53:07.251Z,3.60
2019-03-19T15:55:08.098Z,3.30
2019-03-19T15:57:08.951Z,3.70
2019-03-19T15:59:10.012Z,3.40
2019-03-19T16:01:11.154Z,3.57
2019-03-19T16:03:11.989Z,3.83
2019-03-19T16:05:12.849Z,3.20
2019-03-19T16:07:13.960Z,3.17
2019-03-19T16:09:14.848Z,3.47
2019-03-19T16:11:15.750Z,3.40
2019-03-19T16:13:16.587Z,3.47
2019-03-19T16:15:18.499Z,3.50
2019-03-19T16:17:19.373Z,3.80
2019-03-19T16:19:20.201Z,3.40
2019-03-19T16:21:21.040Z,3.77
2019-03-19T16:23:21.888Z,3.47
2019-03-19T16:25:22.737Z,3.60
2019-03-19T16:27:23.560Z,3.60
2019-03-19T16:29:24.416Z,3.90
2019-03-19T16:31:25.602Z,4.40
2019-03-19T16:33:26.733Z,3.97
2019-03-19T16:35:27.899Z,3.70
2019-03-19T16:37:28.729Z,3.50
2019-03-19T16:39:29.864Z,3.80
2019-03-19T16:41:30.708Z,3.90
2019-03-19T16:43:31.834Z,3.70
2019-03-19T16:45:32.672Z,3.63
2019-03-19T16:47:33.526Z,4.20
2019-03-19T16:49:34.377Z,3.77
2019-03-19T16:51:35.208Z,3.90
2019-03-19T16:53:36.040Z,3.80
2019-03-19T16:55:36.885Z,3.80
2019-03-19T16:57:38.079Z,4.00
2019-03-19T16:59:38.948Z,5.30
2019-03-19T17:01:41.965Z,4.40
2019-03-19T17:03:42.560Z,4.53
2019-03-19T17:05:43.397Z,3.97
2019-03-19T17:07:44.252Z,4.90
2019-03-19T17:09:45.117Z,5.10
2019-03-19T17:11:46.202Z,7.47
2019-03-19T17:13:47.209Z,6.87
2019-03-19T17:15:48.068Z,7.60
2019-03-19T17:17:48.916Z,6.37
2019-03-19T17:19:49.768Z,5.57
2019-03-19T17:21:50.600Z,4.93
2019-03-19T17:23:51.456Z,4.83
2019-03-19T17:25:52.288Z,3.87
2019-03-19T17:27:53.129Z,3.70
2019-03-19T17:29:53.973Z,3.70
2019-03-19T17:31:54.896Z,4.53
2019-03-19T17:33:55.857Z,4.60
2019-03-19T17:35:56.706Z,4.40
2019-03-19T17:37:57.616Z,4.47
2019-03-19T17:39:58.500Z,4.70
2019-03-19T17:41:59.345Z,4.60
2019-03-19T17:44:00.172Z,4.87
2019-03-19T17:46:01.273Z,5.70
2019-03-19T17:48:02.114Z,4.70
2019-03-19T17:50:02.944Z,4.80
2019-03-19T17:52:03.805Z,4.07
2019-03-19T17:54:04.637Z,4.00
2019-03-19T17:56:05.501Z,3.90
2019-03-19T17:58:06.335Z,3.90
2019-03-19T18:00:07.272Z,4.00
2019-03-19T18:02:08.117Z,4.53
2019-03-19T18:04:08.975Z,5.07
2019-03-19T18:06:09.816Z,5.03
2019-03-19T18:08:10.912Z,4.97
2019-03-19T18:29:10.663Z,4.97
2019-03-19T18:31:11.595Z,5.63
2019-03-19T18:33:12.356Z,5.23
2019-03-19T18:35:13.088Z,5.10
2019-03-19T18:37:14.160Z,7.30
2019-03-19T18:39:14.929Z,6.57
2019-03-19T18:41:15.747Z,7.43
2019-03-19T18:43:16.769Z,7.23
2019-03-19T18:45:17.511Z,7.70
2019-03-19T18:47:18.228Z,8.33
2019-03-19T18:49:18.982Z,8.50
2019-03-19T18:51:19.801Z,7.23
2019-03-19T18:53:20.548Z,7.10
2019-03-19T18:55:21.616Z,6.90
2019-03-19T18:57:22.392Z,7.67
2019-03-19T18:59:23.136Z,7.07
2019-03-19T19:01:23.857Z,7.60
2019-03-19T19:03:24.601Z,7.17
2019-03-19T19:05:25.356Z,6.23
2019-03-19T19:07:26.082Z,6.53
2019-03-19T19:09:26.804Z,6.30
2019-03-19T19:11:27.549Z,7.77
2019-03-19T19:13:28.305Z,7.50
2019-03-19T19:15:29.035Z,7.73
2019-03-19T19:17:29.772Z,7.80
2019-03-19T19:19:30.509Z,7.67
2019-03-19T19:21:31.232Z,8.40
2019-03-19T19:23:32.296Z,8.70
2019-03-19T19:25:33.048Z,8.50
2019-03-19T19:27:33.791Z,8.07
2019-03-19T19:29:34.552Z,8.13
2019-03-19T19:31:35.288Z,8.60
2019-03-19T19:33:36.357Z,7.50
2019-03-19T19:35:37.117Z,7.60
2019-03-19T19:37:37.836Z,7.47
2019-03-19T19:39:38.589Z,7.47
2019-03-19T19:41:39.340Z,7.20
2019-03-19T19:43:40.080Z,7.23
2019-03-19T19:45:40.860Z,7.70
2019-03-19T19:47:41.601Z,7.77
2019-03-19T19:49:42.324Z,7.80
2019-03-19T19:51:43.076Z,7.77
2019-03-19T19:53:43.913Z,8.93
2019-03-19T19:55:44.652Z,9.00
2019-03-19T19:57:45.405Z,9.13
2019-03-19T19:59:46.185Z,9.90
2019-03-19T20:01:47.751Z,9.70
2019-03-19T20:03:48.532Z,10.20
2019-03-19T20:05:49.275Z,10.37
2019-03-19T20:07:50.061Z,11.27
2019-03-19T20:09:50.793Z,11.30
2019-03-19T20:11:51.516Z,10.97
2019-03-19T20:13:52.277Z,10.57
2019-03-19T20:15:53.044Z,9.73
2019-03-19T20:17:53.765Z,10.03
2019-03-19T20:19:54.807Z,10.00
2019-03-19T20:21:55.561Z,9.57
2019-03-19T20:23:56.627Z,9.40
2019-03-19T20:25:57.432Z,9.43
2019-03-19T20:27:58.186Z,8.97
2019-03-19T20:29:58.908Z,9.60
2019-03-19T20:31:59.664Z,10.23
2019-03-19T20:34:00.397Z,10.17
2019-03-19T20:36:01.128Z,9.00
2019-03-19T20:38:01.876Z,9.93
2019-03-19T20:40:02.609Z,9.90
2019-03-19T20:42:03.345Z,10.47
2019-03-19T20:44:04.093Z,9.93
2019-03-19T20:46:04.833Z,10.30
2019-03-19T20:48:05.904Z,10.80
2019-03-19T20:50:06.633Z,10.17
2019-03-19T20:52:07.377Z,10.13
2019-03-19T20:54:08.117Z,10.53
2019-03-19T20:56:08.900Z,10.80
2019-03-19T20:58:09.646Z,10.50
2019-03-19T21:00:10.384Z,11.50
2019-03-19T21:02:11.232Z,11.00
2019-03-19T21:04:11.965Z,11.43
2019-03-19T21:06:12.701Z,11.17
2019-03-19T21:08:13.463Z,11.57
2019-03-19T21:10:14.224Z,11.73
2019-03-19T21:12:15.144Z,11.87
2019-03-19T21:14:15.907Z,11.20
2019-03-19T21:16:16.900Z,12.20
2019-03-19T21:18:17.640Z,11.57
2019-03-19T21:20:18.407Z,12.30
2019-03-19T21:22:19.145Z,13.07
2019-03-19T21:24:19.896Z,11.73
2019-03-19T21:26:20.713Z,11.93
2019-03-19T21:28:21.445Z,12.13
2019-03-19T21:30:22.179Z,11.10
2019-03-19T21:32:23.039Z,11.87
2019-03-19T21:34:23.902Z,11.70
2019-03-19T21:36:24.644Z,11.73
2019-03-19T21:38:25.406Z,11.13
2019-03-19T21:40:26.124Z,10.87
2019-03-19T21:42:26.880Z,10.77
2019-03-19T21:44:27.620Z,12.13
2019-03-19T21:46:28.352Z,12.53
2019-03-19T21:48:29.197Z,11.63
2019-03-19T21:50:30.252Z,10.20
2019-03-19T21:52:31.291Z,10.67
2019-03-19T21:54:32.145Z,10.57
2019-03-19T21:56:33.209Z,10.50
2019-03-19T21:58:33.938Z,10.50
2019-03-19T22:00:35.038Z,10.43
2019-03-19T22:02:35.781Z,10.77
2019-03-19T22:04:36.529Z,11.10
2019-03-19T22:06:37.310Z,11.93
2019-03-19T22:08:38.066Z,12.40
2019-03-19T22:10:38.818Z,11.93
2019-03-19T22:12:39.557Z,12.37
2019-03-19T22:14:40.315Z,11.97
2019-03-19T22:16:41.537Z,11.70
2019-03-19T22:18:42.316Z,11.80
2019-03-19T22:20:43.067Z,12.43
2019-03-19T22:22:43.814Z,11.83
2019-03-19T22:24:44.580Z,11.67
2019-03-19T22:26:45.304Z,13.20
2019-03-19T22:28:46.028Z,12.83
2019-03-19T22:30:46.784Z,11.33
2019-03-19T22:32:47.527Z,11.63
2019-03-19T22:34:48.252Z,11.23
2019-03-19T22:36:48.997Z,10.73
2019-03-19T22:38:50.039Z,11.03
2019-03-19T22:40:50.770Z,11.13
2019-03-19T22:42:51.572Z,11.87
2019-03-19T22:44:52.637Z,13.30
2019-03-19T22:46:53.372Z,12.60
2019-03-19T22:48:54.120Z,11.93
2019-03-19T22:50:55.141Z,12.43
2019-03-19T22:52:55.876Z,11.67
2019-03-19T22:54:56.633Z,11.40
2019-03-19T22:56:57.837Z,11.67
2019-03-19T22:58:58.628Z,12.57
2019-03-19T23:00:59.372Z,12.57
2019-03-19T23:03:00.128Z,12.73
2019-03-19T23:05:00.871Z,12.07
2019-03-19T23:07:01.611Z,11.33
2019-03-19T23:09:02.688Z,10.83
2019-03-19T23:11:03.440Z,10.67
2019-03-19T23:13:04.500Z,11.37
2019-03-19T23:15:05.232Z,12.07
2019-03-19T23:17:06.120Z,12.47
2019-03-19T23:19:06.852Z,12.50
2019-03-19T23:21:07.856Z,12.17
2019-03-19T23:23:08.576Z,12.27
2019-03-19T23:25:09.316Z,12.60
2019-03-19T23:27:10.352Z,12.40
2019-03-19T23:29:11.080Z,12.00
2019-03-19T23:31:11.820Z,12.17
2019-03-19T23:33:12.570Z,12.23
2019-03-19T23:35:13.295Z,12.67
2019-03-19T23:37:14.059Z,12.70
2019-03-19T23:39:14.844Z,12.93
2019-03-19T23:41:15.653Z,12.37
2019-03-19T23:43:16.376Z,12.00
2019-03-19T23:45:17.133Z,11.73
2019-03-19T23:47:17.877Z,12.00
2019-03-19T23:49:18.614Z,11.70
2019-03-19T23:51:19.610Z,11.80
2019-03-19T23:53:20.361Z,11.93
2019-03-19T23:55:21.207Z,12.57
2019-03-19T23:57:21.945Z,12.07
2019-03-19T23:59:22.773Z,12.47
